Time;durP1;ratioP1;P1;durP2;ratioP2;P2;SDS_P1;SDS_P2;PMS_P1;PMS_P2;Temp;Humidity;BMP_temperature;BMP_pressure;BME280_temperature;BME280_humidity;BME280_pressure;Samples;Min_cycle;Max_cycle;Signal;HPM_P1;HPM_P2
2023/08/04 00:02:10;;;;;;;9.93;8.10;;;;;;;23.80;54.44;94420.13;5010676;28;20026;-75
2023/08/04 00:04:36;;;;;;;8.57;7.68;;;;;;;23.75;54.03;94407.53;4989045;28;20559;-75
2023/08/04 00:07:02;;;;;;;9.07;8.18;;;;;;;23.78;53.98;94411.56;4990524;28;20034;-75
2023/08/04 00:09:28;;;;;;;8.27;7.47;;;;;;;23.88;53.86;94425.16;4973239;28;20037;-75
2023/08/04 00:11:53;;;;;;;8.77;7.97;;;;;;;23.75;54.08;94419.97;4970254;28;20042;-75
2023/08/04 00:14:19;;;;;;;8.63;7.82;;;;;;;23.64;54.61;94419.59;4980647;28;20042;-75
2023/08/04 00:16:44;;;;;;;9.02;8.13;;;;;;;23.61;54.64;94413.94;4998275;28;20041;-75
2023/08/04 00:19:09;;;;;;;9.35;8.45;;;;;;;23.53;55.28;94417.66;4978255;28;20031;-75
2023/08/04 00:21:35;;;;;;;8.52;7.63;;;;;;;23.56;55.66;94427.03;4989626;28;20564;-75
2023/08/04 00:24:00;;;;;;;9.23;8.32;;;;;;;23.50;55.17;94415.44;4988976;28;20030;-75
2023/08/04 00:26:26;;;;;;;9.60;8.60;;;;;;;23.44;55.49;94426.13;4990010;28;20077;-75
2023/08/04 00:28:52;;;;;;;9.57;8.57;;;;;;;23.53;55.61;94433.56;4989455;28;20030;-75
2023/08/04 00:31:17;;;;;;;10.00;8.32;;;;;;;23.44;55.62;94416.31;4945020;28;20058;-75
2023/08/04 00:33:43;;;;;;;8.75;7.95;;;;;;;23.40;55.92;94428.38;4974103;28;20042;-75
2023/08/04 00:36:08;;;;;;;9.10;8.20;;;;;;;23.30;56.39;94414.81;4994186;28;20097;-75
2023/08/04 00:38:33;;;;;;;9.23;8.43;;;;;;;23.33;56.61;94428.44;4991211;28;20059;-75
2023/08/04 00:40:59;;;;;;;10.20;8.65;;;;;;;23.14;57.01;94416.94;4976901;28;20031;-75
2023/08/04 00:43:24;;;;;;;9.88;8.95;;;;;;;23.18;57.53;94430.59;4991128;28;20057;-75
2023/08/04 00:45:50;;;;;;;9.80;8.90;;;;;;;23.06;57.93;94414.53;4999855;28;20034;-75
2023/08/04 00:48:15;;;;;;;9.90;8.98;;;;;;;23.15;57.82;94431.00;4988875;28;20106;-75
2023/08/04 00:50:41;;;;;;;10.10;9.02;;;;;;;23.07;58.02;94429.44;4992883;28;20018;-75
2023/08/04 00:53:07;;;;;;;11.15;10.07;;;;;;;23.04;58.43;94423.72;4960504;28;20472;-75
2023/08/04 00:55:32;;;;;;;10.60;9.60;;;;;;;22.92;58.89;94421.72;4991162;28;20113;-75
2023/08/04 00:57:58;;;;;;;10.98;9.88;;;;;;;22.99;59.08;94428.88;4960000;28;20061;-75
2023/08/04 01:00:24;;;;;;;11.48;10.38;;;;;;;22.93;59.37;94443.75;4960148;28;20519;-75
2023/08/04 01:02:49;;;;;;;10.55;9.60;;;;;;;22.95;59.62;94439.03;4972843;28;20476;-75
2023/08/04 01:05:14;;;;;;;10.80;9.73;;;;;;;22.88;59.65;94428.47;4992223;28;20038;-75
2023/08/04 01:07:46;;;;;;;10.77;9.77;;;;;;;22.79;59.61;94415.69;4971129;28;20030;-75
2023/08/04 01:10:20;;;;;;;12.05;10.95;;;;;;;22.79;59.61;94428.94;4961070;28;20042;-75
2023/08/04 01:13:05;;;;;;;10.95;9.95;;;;;;;22.85;60.21;94430.75;4967551;28;20026;-75
2023/08/04 01:15:30;;;;;;;10.63;9.63;;;;;;;22.70;60.14;94423.88;4958358;28;20034;-75
2023/08/04 01:17:56;;;;;;;11.07;9.98;;;;;;;22.82;59.72;94431.19;4945744;28;20802;-75
2023/08/04 01:20:22;;;;;;;10.95;9.95;;;;;;;22.83;60.01;94430.16;4960090;28;20038;-75
2023/08/04 01:22:48;;;;;;;11.63;10.45;;;;;;;22.62;60.69;94407.44;4975452;28;20026;-75
2023/08/04 01:25:13;;;;;;;11.10;10.00;;;;;;;22.64;60.35;94408.84;4973217;28;20507;-75
2023/08/04 01:27:43;;;;;;;11.45;10.35;;;;;;;22.71;60.36;94428.16;4976588;28;20030;-75
2023/08/04 01:30:29;;;;;;;12.48;10.48;;;;;;;22.69;60.86;94422.25;4991939;28;20505;-75
2023/08/04 01:32:54;;;;;;;11.40;10.27;;;;;;;22.64;60.86;94416.78;4992674;28;20508;-75
2023/08/04 01:35:20;;;;;;;12.18;10.98;;;;;;;22.69;60.77;94430.19;4973212;28;20041;-75
2023/08/04 01:37:45;;;;;;;12.07;10.80;;;;;;;22.82;60.68;94428.53;5009288;28;20025;-75
2023/08/04 01:40:11;;;;;;;11.55;10.45;;;;;;;22.74;60.88;94432.22;4993057;28;20038;-75
2023/08/04 01:42:37;;;;;;;11.68;10.48;;;;;;;22.55;60.74;94420.69;4975089;28;20026;-75
2023/08/04 01:45:02;;;;;;;11.80;10.60;;;;;;;22.67;61.08;94432.25;4974111;28;20435;-75
2023/08/04 01:47:28;;;;;;;11.73;10.52;;;;;;;22.58;60.88;94428.22;4973517;28;20030;-75
2023/08/04 01:49:53;;;;;;;11.90;10.80;;;;;;;22.60;60.81;94428.03;4975888;28;20026;-75
2023/08/04 01:52:19;;;;;;;11.82;10.70;;;;;;;22.68;60.97;94430.44;4991749;28;20035;-74
2023/08/04 01:54:44;;;;;;;11.32;10.15;;;;;;;22.50;61.23;94423.16;4966122;28;20404;-75
2023/08/04 01:57:10;;;;;;;12.27;10.73;;;;;;;22.51;61.10;94432.72;4974360;28;20042;-75
2023/08/04 01:59:35;;;;;;;11.23;10.23;;;;;;;22.52;61.23;94434.34;4958947;28;20513;-74
2023/08/04 02:02:00;;;;;;;11.82;10.65;;;;;;;22.54;61.17;94434.97;4959474;28;20041;-75
2023/08/04 02:04:26;;;;;;;11.20;10.10;;;;;;;22.56;60.90;94435.53;4990392;28;20472;-75
2023/08/04 02:06:51;;;;;;;11.40;10.25;;;;;;;22.46;61.20;94443.13;4984710;28;20040;-75
2023/08/04 02:09:16;;;;;;;11.52;10.30;;;;;;;22.44;61.07;94443.34;4973873;28;20037;-75
2023/08/04 02:11:42;;;;;;;11.32;10.32;;;;;;;22.38;61.63;94446.03;4958999;28;20435;-74
2023/08/04 02:14:07;;;;;;;11.40;10.30;;;;;;;22.35;61.97;94455.19;4976645;28;20672;-75
2023/08/04 02:16:33;;;;;;;11.52;10.43;;;;;;;22.39;61.72;94447.63;4973007;28;20038;-75
2023/08/04 02:19:06;;;;;;;11.02;9.93;;;;;;;22.37;61.57;94460.25;4992045;28;20085;-75
2023/08/04 02:21:31;;;;;;;12.15;10.43;;;;;;;22.25;61.38;94437.09;4973692;28;20511;-75
2023/08/04 02:23:57;;;;;;;11.73;10.43;;;;;;;22.38;61.50;94459.25;4973345;28;20022;-75
2023/08/04 02:26:23;;;;;;;10.98;9.98;;;;;;;22.31;61.00;94461.88;4982776;28;20030;-75
2023/08/04 02:28:50;;;;;;;11.18;10.07;;;;;;;22.29;61.53;94454.19;4974342;28;20053;-75
2023/08/04 02:31:17;;;;;;;10.73;9.63;;;;;;;22.21;61.61;94457.03;4977168;28;20504;-75
2023/08/04 02:33:42;;;;;;;10.52;9.55;;;;;;;22.24;61.56;94459.28;4975511;28;20093;-75
2023/08/04 02:36:09;;;;;;;13.05;10.77;;;;;;;22.12;61.41;94441.56;4993440;28;20042;-75
2023/08/04 02:38:34;;;;;;;11.20;10.13;;;;;;;22.26;61.77;94464.38;4982667;28;20030;-75
2023/08/04 02:41:02;;;;;;;11.00;10.00;;;;;;;22.23;61.84;94470.06;4974604;28;20041;-75
2023/08/04 02:43:28;;;;;;;10.98;9.95;;;;;;;22.14;61.81;94465.97;4965634;28;20069;-75
2023/08/04 02:45:53;;;;;;;14.13;10.25;;;;;;;22.05;62.04;94468.84;4995962;28;20033;-75
2023/08/04 02:48:18;;;;;;;12.15;10.98;;;;;;;22.07;61.79;94461.53;5011184;28;20057;-74
2023/08/04 02:50:44;;;;;;;10.93;9.93;;;;;;;22.08;62.03;94470.25;4992073;28;20021;-74
2023/08/04 02:53:09;;;;;;;11.57;10.40;;;;;;;22.05;62.53;94473.31;4975774;28;20022;-75
2023/08/04 02:55:34;;;;;;;11.52;10.43;;;;;;;21.89;62.42;94456.03;5010174;28;20045;-75
2023/08/04 02:58:00;;;;;;;11.25;10.10;;;;;;;21.90;62.62;94462.13;4992131;28;20503;-75
2023/08/04 03:00:26;;;;;;;11.32;10.32;;;;;;;22.00;62.52;94465.19;5010314;28;20034;-75
2023/08/04 03:02:51;;;;;;;11.70;10.50;;;;;;;21.97;62.32;94468.25;4976242;28;20040;-75
2023/08/04 03:05:17;;;;;;;12.20;10.75;;;;;;;21.91;62.54;94472.53;4977378;28;20026;-75
2023/08/04 03:07:42;;;;;;;11.65;10.55;;;;;;;21.97;62.38;94476.97;5011422;28;20408;-75
2023/08/04 03:10:08;;;;;;;11.65;10.50;;;;;;;21.92;62.72;94466.22;4961408;28;20462;-75
2023/08/04 03:12:33;;;;;;;11.35;10.10;;;;;;;21.94;62.70;94472.09;4977322;28;20041;-75
2023/08/04 03:14:59;;;;;;;11.68;10.48;;;;;;;21.98;62.70;94476.00;5010966;28;20034;-75
2023/08/04 03:17:24;;;;;;;12.18;11.02;;;;;;;21.84;63.00;94472.53;4977448;28;20045;-74
2023/08/04 03:19:49;;;;;;;11.27;10.27;;;;;;;21.84;63.05;94467.25;5011365;28;20057;-74
2023/08/04 03:22:15;;;;;;;11.80;10.27;;;;;;;21.85;63.10;94458.28;4977597;28;20037;-75
2023/08/04 03:24:40;;;;;;;12.05;10.85;;;;;;;21.94;62.62;94460.72;4993541;28;20428;-74
2023/08/04 03:27:06;;;;;;;12.00;10.85;;;;;;;21.92;62.61;94468.03;4993606;28;20030;-75
2023/08/04 03:29:31;;;;;;;11.68;10.57;;;;;;;21.85;62.93;94466.22;4993382;28;20071;-74
2023/08/04 03:31:57;;;;;;;11.18;10.18;;;;;;;21.94;62.89;94476.59;4977326;28;20507;-75
2023/08/04 03:34:22;;;;;;;11.95;10.73;;;;;;;21.79;63.11;94453.84;4993555;28;20033;-75
2023/08/04 03:50:27;;;;;;;12.07;10.98;;;;;;;22.19;61.50;94452.97;5149673;27;20384;-73
2023/08/04 03:52:53;;;;;;;12.38;11.27;;;;;;;22.28;61.83;94475.53;5149571;27;20066;-73
2023/08/04 03:55:18;;;;;;;12.60;11.30;;;;;;;22.07;61.86;94460.72;5148384;27;20026;-73
2023/08/04 03:57:44;;;;;;;12.55;11.35;;;;;;;22.21;62.10;94478.22;5148064;27;20457;-73
2023/08/04 04:00:09;;;;;;;11.45;10.25;;;;;;;21.95;62.52;94451.75;5149505;27;20038;-73
2023/08/04 04:02:35;;;;;;;12.00;10.80;;;;;;;22.03;62.84;94488.56;5130954;27;20488;-73
2023/08/04 04:05:00;;;;;;;11.73;10.63;;;;;;;21.89;63.36;94473.75;5148201;27;20098;-74
2023/08/04 04:07:26;;;;;;;12.63;11.43;;;;;;;21.72;63.17;94462.78;5130922;27;20107;-74
2023/08/04 04:09:51;;;;;;;12.25;11.15;;;;;;;21.85;63.46;94481.28;5131020;27;20027;-73
2023/08/04 04:12:17;;;;;;;12.23;10.98;;;;;;;21.84;63.11;94477.84;5130962;27;20023;-73
2023/08/04 04:14:42;;;;;;;11.75;10.27;;;;;;;21.89;63.42;94486.97;5131027;27;20037;-73
2023/08/04 04:17:07;;;;;;;11.85;10.63;;;;;;;22.02;63.12;94487.75;5113633;27;20023;-73
2023/08/04 04:19:33;;;;;;;12.00;10.80;;;;;;;22.29;62.24;94491.22;5113618;27;20031;-73
2023/08/04 04:21:58;;;;;;;11.98;10.77;;;;;;;22.52;61.36;94485.44;5113311;27;20034;-73
2023/08/04 04:24:24;;;;;;;11.90;10.80;;;;;;;22.19;61.13;94416.75;5113648;27;20030;-73
2023/08/04 04:26:49;;;;;;;11.57;10.48;;;;;;;22.74;60.66;94483.34;5147960;27;20745;-74
2023/08/04 04:29:14;;;;;;;11.25;10.25;;;;;;;23.01;59.70;94472.63;5148682;27;20038;-73
2023/08/04 04:31:40;;;;;;;11.63;10.48;;;;;;;23.16;59.32;94486.41;5113322;27;20481;-73
2023/08/04 04:34:05;;;;;;;13.13;10.75;;;;;;;22.91;59.84;94478.38;5144160;27;20032;-73
2023/08/04 04:36:31;;;;;;;12.32;11.23;;;;;;;22.90;59.94;94460.88;5109869;28;20038;-73
2023/08/04 04:38:56;;;;;;;11.57;10.50;;;;;;;23.29;59.34;94487.34;5097345;27;20084;-74
2023/08/04 04:41:22;;;;;;;11.73;10.63;;;;;;;23.86;57.58;94482.91;5127161;28;20027;-73
2023/08/04 04:43:47;;;;;;;11.07;10.07;;;;;;;24.29;56.27;94490.88;5126863;28;20468;-73
2023/08/04 04:46:12;;;;;;;11.07;10.07;;;;;;;24.50;55.58;94496.81;5109661;28;20417;-74
2023/08/04 04:48:38;;;;;;;11.18;10.18;;;;;;;24.87;54.97;94497.59;5109470;28;20055;-74
2023/08/04 04:51:03;;;;;;;10.77;9.77;;;;;;;25.11;53.97;94497.72;5126942;27;20019;-74
2023/08/04 04:53:29;;;;;;;11.13;10.15;;;;;;;25.43;53.09;94490.34;5132970;27;20457;-74
2023/08/04 04:55:56;;;;;;;11.50;10.35;;;;;;;25.80;52.35;94491.03;5112412;28;20481;-74
2023/08/04 04:58:21;;;;;;;10.98;9.98;;;;;;;25.97;51.48;94491.19;5102938;28;20092;-74
2023/08/04 05:00:46;;;;;;;10.75;9.75;;;;;;;25.93;51.19;94490.00;5107428;27;20011;-73
2023/08/04 05:03:12;;;;;;;11.80;10.23;;;;;;;26.10;51.35;94495.47;5097903;27;20496;-74
2023/08/04 05:05:38;;;;;;;10.70;9.70;;;;;;;26.26;50.84;94483.31;5122498;27;20027;-74
2023/08/04 05:08:03;;;;;;;10.88;9.77;;;;;;;26.45;49.87;94494.66;5125671;27;20118;-74
2023/08/04 05:10:29;;;;;;;10.63;9.63;;;;;;;26.54;49.76;94500.47;5117845;27;20449;-74
2023/08/04 05:12:54;;;;;;;11.20;10.10;;;;;;;26.42;49.83;94490.59;5115572;27;20031;-74
2023/08/04 05:15:19;;;;;;;11.13;9.43;;;;;;;26.58;48.94;94481.13;5101853;27;20026;-74
2023/08/04 05:17:45;;;;;;;11.20;10.07;;;;;;;26.70;48.78;94508.53;5124638;27;20045;-74
2023/08/04 05:20:11;;;;;;;14.50;11.18;;;;;;;26.52;50.36;94501.50;5103776;27;20024;-74
2023/08/04 05:22:37;;;;;;;11.93;10.65;;;;;;;26.12;51.67;94493.38;5114588;27;20072;-73
2023/08/04 05:25:03;;;;;;;11.57;10.38;;;;;;;26.06;51.17;94446.41;5113134;27;20032;-74
2023/08/04 05:27:29;;;;;;;12.82;11.00;;;;;;;26.40;51.24;94510.50;5130006;27;20035;-73
2023/08/04 05:29:54;;;;;;;14.73;10.45;;;;;;;26.34;50.56;94490.16;5133735;27;20034;-74
2023/08/04 05:32:20;;;;;;;11.60;10.50;;;;;;;26.77;49.68;94495.06;5132997;27;20533;-74
2023/08/04 05:34:45;;;;;;;11.52;10.13;;;;;;;26.87;49.56;94478.50;5131340;27;20031;-73
2023/08/04 05:37:11;;;;;;;12.35;10.65;;;;;;;26.96;49.90;94495.72;5127323;27;20091;-74
2023/08/04 05:39:36;;;;;;;15.75;10.75;;;;;;;27.14;49.58;94484.91;5111296;28;20039;-75
2023/08/04 05:42:02;;;;;;;11.93;10.63;;;;;;;27.32;49.08;94502.59;5076417;28;20028;-74
2023/08/04 05:44:28;;;;;;;11.75;10.52;;;;;;;27.24;49.17;94504.81;5111694;28;20405;-76
2023/08/04 05:46:56;;;;;;;11.57;10.38;;;;;;;27.38;49.15;94498.16;5111442;28;20024;-78
2023/08/04 05:49:21;;;;;;;11.00;9.90;;;;;;;27.56;48.38;94497.16;5110601;28;20039;-85
2023/08/04 05:51:47;;;;;;;12.20;10.45;;;;;;;27.45;48.00;94464.16;5092868;28;20020;-78
2023/08/04 05:54:12;;;;;;;10.32;9.43;;;;;;;27.46;46.57;94428.44;5110189;28;20399;-81
2023/08/04 05:56:38;;;;;;;10.25;9.35;;;;;;;27.99;46.41;94496.53;5112449;28;20092;-75
2023/08/04 05:59:03;;;;;;;10.60;9.60;;;;;;;28.01;46.28;94499.78;5115668;27;20074;-76
2023/08/04 06:01:29;;;;;;;11.15;9.50;;;;;;;27.65;46.47;94426.34;5121016;27;20047;-74
2023/08/04 06:03:54;;;;;;;11.23;10.07;;;;;;;28.05;46.90;94500.94;5094619;28;20545;-75
2023/08/04 06:06:20;;;;;;;13.13;10.15;;;;;;;28.09;46.88;94500.44;5094605;28;20381;-74
2023/08/04 06:08:46;;;;;;;11.82;10.18;;;;;;;27.95;47.31;94479.41;5113143;27;20035;-75
2023/08/04 06:11:12;;;;;;;13.15;10.50;;;;;;;28.14;47.32;94481.81;5132010;27;20143;-75
2023/08/04 06:13:37;;;;;;;13.52;10.70;;;;;;;28.04;47.42;94496.63;5131815;27;20051;-75
2023/08/04 06:16:03;;;;;;;14.20;10.57;;;;;;;28.02;47.68;94492.59;5123736;27;20030;-74
2023/08/04 06:18:28;;;;;;;11.77;10.55;;;;;;;28.40;46.92;94497.16;5097755;27;20039;-74
2023/08/04 06:20:54;;;;;;;12.38;10.07;;;;;;;28.70;46.37;94491.47;5131377;27;20019;-74
2023/08/04 06:23:19;;;;;;;15.73;10.48;;;;;;;28.50;45.38;94441.25;5133064;27;20035;-74
2023/08/04 06:25:44;;;;;;;14.70;11.40;;;;;;;28.55;46.09;94493.91;5110956;27;20480;-74
2023/08/04 06:28:10;;;;;;;17.42;11.10;;;;;;;28.25;46.21;94432.84;5116258;27;20417;-75
2023/08/04 06:30:36;;;;;;;13.07;11.10;;;;;;;28.56;46.20;94500.09;5075727;28;20019;-74
2023/08/04 06:33:01;;;;;;;14.77;10.43;;;;;;;28.90;45.68;94504.28;5094070;28;20031;-74
2023/08/04 06:35:27;;;;;;;13.65;11.07;;;;;;;29.05;45.10;94500.19;5110949;28;20069;-75
2023/08/04 06:37:52;;;;;;;14.10;11.07;;;;;;;28.98;44.96;94480.84;5091988;28;20662;-75
2023/08/04 06:40:17;;;;;;;12.65;9.63;;;;;;;29.41;44.59;94501.38;5092809;28;20031;-75
2023/08/04 06:42:43;;;;;;;11.15;9.60;;;;;;;29.27;43.42;94436.00;5108876;28;20039;-75
2023/08/04 06:45:08;;;;;;;12.38;9.80;;;;;;;29.86;43.53;94491.41;5091904;28;20092;-75
2023/08/04 06:47:34;;;;;;;17.30;10.63;;;;;;;29.63;44.06;94490.66;5110639;28;20461;-75
2023/08/04 06:49:59;;;;;;;15.70;10.65;;;;;;;29.76;43.18;94471.53;5110675;28;20065;-75
2023/08/04 06:52:25;;;;;;;13.50;10.95;;;;;;;29.31;43.53;94448.63;5093696;28;20027;-75
2023/08/04 06:54:51;;;;;;;14.40;10.40;;;;;;;29.64;43.72;94488.78;5112192;28;20504;-75
2023/08/04 06:57:16;;;;;;;11.38;10.18;;;;;;;29.98;42.80;94484.03;5093710;28;20024;-75
2023/08/04 06:59:41;;;;;;;11.85;9.95;;;;;;;29.88;43.26;94481.25;5110666;28;20031;-74
2023/08/04 07:02:07;;;;;;;12.85;9.75;;;;;;;29.99;42.83;94477.59;5093538;28;20027;-75
2023/08/04 07:04:32;;;;;;;10.65;9.55;;;;;;;29.78;42.23;94441.81;5093447;28;20028;-74
2023/08/04 07:06:58;;;;;;;11.60;9.60;;;;;;;30.00;42.38;94471.97;5098461;27;20416;-75
2023/08/04 07:09:23;;;;;;;9.15;7.80;;;;;;;29.95;41.50;94471.13;5130932;27;20079;-75
2023/08/04 07:11:49;;;;;;;7.50;6.68;;;;;;;30.23;40.15;94454.78;5105410;28;20030;-75
2023/08/04 07:14:15;;;;;;;8.45;7.65;;;;;;;30.53;39.50;94463.22;5076331;28;20027;-75
2023/08/04 07:16:41;;;;;;;13.95;8.43;;;;;;;30.12;41.02;94465.66;5110207;28;20477;-75
2023/08/04 07:19:06;;;;;;;10.73;8.13;;;;;;;29.89;40.63;94411.38;5110054;28;20035;-75
2023/08/04 07:21:32;;;;;;;12.55;9.18;;;;;;;29.93;40.68;94414.38;5111475;28;20409;-75
2023/08/04 07:23:57;;;;;;;9.07;8.07;;;;;;;30.24;39.33;94394.78;5119627;27;20080;-75
2023/08/04 07:26:23;;;;;;;8.65;7.85;;;;;;;31.08;37.37;94470.72;5131905;27;20080;-75
2023/08/04 07:28:48;;;;;;;7.50;6.80;;;;;;;30.62;38.34;94411.56;5131572;27;20035;-75
2023/08/04 07:31:14;;;;;;;9.07;6.97;;;;;;;30.80;38.27;94425.59;5131399;27;20019;-75
2023/08/04 07:33:39;;;;;;;7.20;6.60;;;;;;;30.93;36.99;94430.47;5113499;27;20043;-75
2023/08/04 07:36:05;;;;;;;7.82;6.82;;;;;;;30.98;37.78;94465.34;5092484;28;20458;-75
2023/08/04 07:38:30;;;;;;;8.02;7.32;;;;;;;30.75;38.60;94415.63;5096177;28;20027;-75
2023/08/04 07:40:56;;;;;;;7.75;6.80;;;;;;;31.10;37.35;94419.53;5117638;28;20423;-75
2023/08/04 07:43:22;;;;;;;7.70;6.93;;;;;;;31.38;36.98;94416.38;5113485;28;20518;-75
2023/08/04 07:45:47;;;;;;;8.20;7.35;;;;;;;31.81;36.13;94467.94;5130497;28;20024;-75
2023/08/04 07:48:13;;;;;;;7.97;7.00;;;;;;;31.17;36.16;94393.25;5095963;28;20042;-75
2023/08/04 07:50:39;;;;;;;8.63;7.00;;;;;;;31.44;36.49;94437.84;5130511;28;20019;-74
2023/08/04 07:53:05;;;;;;;7.93;7.25;;;;;;;31.36;36.91;94413.16;5130496;28;20039;-75
2023/08/04 07:55:33;;;;;;;9.07;7.22;;;;;;;31.48;37.06;94417.44;5112683;28;20023;-75
2023/08/04 07:57:59;;;;;;;7.75;6.95;;;;;;;31.55;36.51;94409.97;5131382;27;20032;-75
2023/08/04 08:00:24;;;;;;;7.68;6.90;;;;;;;31.58;37.35;94412.91;5109674;28;20023;-75
2023/08/04 08:02:49;;;;;;;7.53;6.85;;;;;;;31.46;36.31;94406.19;5109809;28;20054;-75
2023/08/04 08:05:15;;;;;;;8.60;7.80;;;;;;;31.61;35.93;94404.31;5111178;28;20492;-74
2023/08/04 08:07:40;;;;;;;7.03;6.43;;;;;;;31.73;36.02;94396.00;5110633;28;20103;-74
2023/08/04 08:10:06;;;;;;;8.07;7.20;;;;;;;32.13;35.88;94455.34;5110263;28;20024;-75
2023/08/04 08:12:32;;;;;;;7.38;6.78;;;;;;;32.29;35.69;94454.25;5109612;28;20480;-75
2023/08/04 08:14:58;;;;;;;12.77;7.78;;;;;;;32.43;35.57;94451.78;5092905;28;20031;-74
2023/08/04 08:17:23;;;;;;;8.35;7.50;;;;;;;32.33;36.13;94433.81;5110852;28;20024;-75
2023/08/04 08:19:48;;;;;;;8.05;7.30;;;;;;;32.09;36.05;94405.91;5111269;28;20043;-75
2023/08/04 08:22:14;;;;;;;8.32;7.57;;;;;;;32.61;35.33;94448.53;5110876;28;20028;-75
2023/08/04 08:24:39;;;;;;;8.63;7.82;;;;;;;32.43;35.37;94452.59;5093081;28;20046;-75
2023/08/04 08:27:05;;;;;;;7.75;7.03;;;;;;;31.87;36.45;94396.25;5096390;28;20028;-75
2023/08/04 08:29:30;;;;;;;10.48;7.85;;;;;;;31.97;35.99;94387.41;5113871;28;20408;-74
2023/08/04 08:31:56;;;;;;;8.65;7.95;;;;;;;32.80;35.23;94439.88;5114571;28;20028;-74
2023/08/04 08:34:21;;;;;;;8.15;7.38;;;;;;;32.78;35.36;94399.81;5114892;28;20031;-75
2023/08/04 08:36:47;;;;;;;8.80;7.95;;;;;;;33.20;34.40;94444.28;5114566;28;20023;-75
2023/08/04 08:39:12;;;;;;;7.90;7.20;;;;;;;33.15;34.31;94420.94;5096231;28;20421;-76
2023/08/04 08:41:38;;;;;;;9.60;7.18;;;;;;;33.12;34.28;94442.19;5113096;28;20084;-75
2023/08/04 08:44:03;;;;;;;8.85;7.95;;;;;;;32.99;34.94;94407.78;5113146;28;20034;-75
2023/08/04 08:46:29;;;;;;;7.97;7.18;;;;;;;32.81;36.03;94431.53;5113159;28;20180;-75
2023/08/04 08:48:57;;;;;;;10.50;7.15;;;;;;;32.72;35.73;94425.13;5112801;28;20051;-75
2023/08/04 08:51:23;;;;;;;8.45;7.75;;;;;;;32.75;35.63;94438.00;5096145;28;20035;-76
2023/08/04 08:53:48;;;;;;;9.32;7.72;;;;;;;32.96;35.43;94424.47;5112953;28;20035;-75
2023/08/04 08:56:14;;;;;;;8.10;7.30;;;;;;;32.79;35.62;94420.28;5112854;28;20023;-75
2023/08/04 08:58:41;;;;;;;8.10;7.30;;;;;;;33.06;35.40;94416.38;5112857;28;20485;-75
2023/08/04 09:01:06;;;;;;;8.57;7.78;;;;;;;32.91;34.88;94409.97;5113040;28;20031;-75
2023/08/04 09:03:34;;;;;;;7.95;7.13;;;;;;;33.24;34.88;94423.00;5112802;28;20032;-76
2023/08/04 09:05:59;;;;;;;8.73;7.93;;;;;;;33.24;34.09;94426.53;5112686;28;20016;-75
2023/08/04 09:08:24;;;;;;;8.27;7.57;;;;;;;33.19;34.20;94423.84;5095508;28;20039;-75
2023/08/04 09:10:50;;;;;;;8.63;7.65;;;;;;;33.06;34.44;94397.56;5113810;28;20024;-75
2023/08/04 09:13:15;;;;;;;8.77;7.97;;;;;;;33.20;34.17;94420.06;5112491;28;20489;-76
2023/08/04 09:15:51;;;;;;;9.48;8.50;;;;;;;33.02;34.21;94426.09;5112600;28;20411;-75
2023/08/04 09:18:42;;;;;;;12.45;7.70;;;;;;;32.96;34.31;94365.31;5112437;28;20030;-76
2023/08/04 09:21:07;;;;;;;8.70;7.90;;;;;;;33.59;33.57;94419.31;5096353;28;20031;-75
2023/08/04 09:23:49;;;;;;;8.50;7.43;;;;;;;33.81;31.58;94403.50;5113760;28;20035;-75
2023/08/04 09:26:15;;;;;;;7.80;7.10;;;;;;;34.03;31.79;94402.25;5112740;28;20016;-75
2023/08/04 09:28:40;;;;;;;7.55;6.85;;;;;;;33.98;32.18;94375.34;5113593;28;20062;-75
2023/08/04 09:31:07;;;;;;;7.47;6.72;;;;;;;34.33;31.05;94405.75;5095231;28;20259;-76
2023/08/04 09:33:33;;;;;;;7.80;7.10;;;;;;;34.26;30.80;94381.81;5112194;28;20073;-76
2023/08/04 09:36:15;;;;;;;7.82;7.13;;;;;;;34.30;30.09;94404.44;5094946;28;20118;-75
2023/08/04 09:38:42;;;;;;;7.53;6.93;;;;;;;34.40;30.52;94400.81;5113512;28;20116;-76
2023/08/04 09:41:12;;;;;;;7.63;6.95;;;;;;;34.39;30.50;94405.41;5113481;28;20039;-76
2023/08/04 09:43:44;;;;;;;8.40;7.60;;;;;;;33.99;30.93;94390.41;5113149;28;20028;-76
2023/08/04 09:46:09;;;;;;;7.75;7.03;;;;;;;34.12;31.20;94399.75;5112003;28;20034;-76
2023/08/04 09:48:35;;;;;;;8.15;7.45;;;;;;;34.37;30.84;94390.59;5094594;28;20055;-75
2023/08/04 09:51:06;;;;;;;8.55;7.80;;;;;;;34.33;31.50;94389.59;5094968;28;20030;-75
2023/08/04 09:53:44;;;;;;;8.20;7.50;;;;;;;34.35;30.92;94390.09;5111900;28;20476;-75
2023/08/04 09:56:10;;;;;;;7.93;7.22;;;;;;;34.46;30.47;94386.19;5111834;28;20027;-75
2023/08/04 09:58:36;;;;;;;7.95;7.22;;;;;;;34.50;31.11;94378.34;5094817;28;20488;-75
2023/08/04 10:01:02;;;;;;;7.88;7.18;;;;;;;34.34;29.71;94386.59;5111667;28;20031;-75
2023/08/04 10:03:28;;;;;;;8.93;7.30;;;;;;;34.27;29.67;94383.44;5094461;28;20479;-75
2023/08/04 10:05:55;;;;;;;8.15;7.35;;;;;;;34.32;30.13;94369.09;5077654;28;20035;-76
2023/08/04 10:08:20;;;;;;;8.68;7.60;;;;;;;33.94;31.73;94360.84;5111434;28;20028;-75
2023/08/04 10:10:46;;;;;;;8.18;7.25;;;;;;;34.14;30.73;94355.28;5111469;28;20042;-76
2023/08/04 10:13:11;;;;;;;7.82;7.10;;;;;;;34.42;29.47;94377.06;5094284;28;20031;-75
2023/08/04 10:15:37;;;;;;;9.25;7.47;;;;;;;34.21;29.63;94382.69;5111467;28;20077;-75
2023/08/04 10:18:03;;;;;;;8.38;7.57;;;;;;;34.31;29.41;94381.78;5112734;28;20031;-75
2023/08/04 10:20:32;;;;;;;8.40;7.63;;;;;;;34.13;30.10;94358.25;5111590;28;20028;-76
2023/08/04 10:22:57;;;;;;;8.20;7.50;;;;;;;34.16;29.69;94346.91;5094109;28;20509;-76
2023/08/04 10:25:24;;;;;;;8.32;7.57;;;;;;;34.55;30.05;94368.28;5111217;28;20027;-75
2023/08/04 10:27:49;;;;;;;8.10;7.40;;;;;;;34.58;30.07;94373.16;5111392;28;20027;-76
2023/08/04 10:30:15;;;;;;;8.15;7.40;;;;;;;34.66;30.52;94374.41;5110966;28;20076;-76
2023/08/04 10:32:41;;;;;;;8.23;7.53;;;;;;;34.87;29.53;94383.03;5111021;28;20022;-76
2023/08/04 10:35:07;;;;;;;7.57;6.93;;;;;;;34.65;28.40;94373.56;5093983;28;20035;-76
2023/08/04 10:37:55;;;;;;;8.00;7.20;;;;;;;34.71;28.98;94352.75;5111155;28;20027;-76
2023/08/04 10:40:31;;;;;;;8.90;8.10;;;;;;;34.13;30.72;94372.53;5110981;28;20539;-76
2023/08/04 10:43:04;;;;;;;8.63;7.90;;;;;;;34.09;30.04;94341.84;5110698;28;20042;-76
2023/08/04 10:45:50;;;;;;;8.60;7.70;;;;;;;34.12;30.34;94370.91;5110875;28;20077;-76
2023/08/04 10:48:17;;;;;;;8.80;8.00;;;;;;;34.22;31.03;94362.75;5109990;28;20036;-76
2023/08/04 10:50:42;;;;;;;8.55;7.75;;;;;;;34.35;31.11;94344.25;5110796;28;20024;-76
2023/08/04 10:53:08;;;;;;;8.45;7.53;;;;;;;34.42;30.12;94356.31;5093502;28;20036;-76
2023/08/04 10:55:34;;;;;;;8.45;7.55;;;;;;;34.51;30.61;94353.78;5093580;28;20026;-76
2023/08/04 10:57:59;;;;;;;8.43;7.60;;;;;;;34.61;30.39;94356.38;5110519;28;20484;-76
2023/08/04 11:00:24;;;;;;;10.77;7.43;;;;;;;34.39;28.75;94350.69;5110639;28;20439;-76
2023/08/04 11:02:50;;;;;;;10.68;8.18;;;;;;;34.33;29.96;94338.38;5110510;28;20046;-76
2023/08/04 11:05:15;;;;;;;8.32;7.53;;;;;;;34.15;30.87;94338.00;5093376;28;20020;-76
2023/08/04 11:07:45;;;;;;;7.78;7.07;;;;;;;34.35;29.77;94345.09;5110468;28;20020;-76
2023/08/04 11:10:11;;;;;;;9.80;7.43;;;;;;;34.15;29.04;94316.47;5093257;28;20081;-76
2023/08/04 11:12:36;;;;;;;7.70;7.00;;;;;;;34.40;30.23;94341.50;5111638;28;20262;-76
2023/08/04 11:15:02;;;;;;;7.75;6.82;;;;;;;34.61;28.88;94347.50;5093312;28;20024;-76
2023/08/04 11:17:27;;;;;;;19.85;8.68;;;;;;;34.77;29.18;94342.69;5111525;28;20041;-76
2023/08/04 11:19:53;;;;;;;7.35;6.65;;;;;;;34.53;28.41;94332.72;5110418;28;20039;-76
2023/08/04 11:22:23;;;;;;;12.00;6.68;;;;;;;34.54;26.78;94342.41;5110191;28;20625;-76
2023/08/04 11:24:50;;;;;;;6.55;5.90;;;;;;;34.53;27.12;94330.03;5093336;28;20485;-75
2023/08/04 11:27:15;;;;;;;8.18;6.45;;;;;;;34.55;26.38;94344.03;5110205;28;20019;-76
2023/08/04 11:29:41;;;;;;;7.20;6.50;;;;;;;34.25;26.97;94324.44;5109924;28;20035;-75
2023/08/04 11:32:24;;;;;;;6.85;6.25;;;;;;;33.98;27.72;94316.09;5110118;28;20106;-76
2023/08/04 11:34:49;;;;;;;7.03;6.38;;;;;;;34.07;27.74;94317.09;5110277;28;20385;-76